Time;durP1;ratioP1;P1;durP2;ratioP2;P2;SDS_P1;SDS_P2;PMS_P1;PMS_P2;Temp;Humidity;BMP_temperature;BMP_pressure;BME280_temperature;BME280_humidity;BME280_pressure;Samples;Min_cycle;Max_cycle;Signal;HPM_P1;HPM_P2
2021/11/03 00:01:13;;;;;;;22.83;21.20;;;6.50;99.90;;;;;;5110584;28;20486;-79
2021/11/03 00:03:41;;;;;;;21.17;19.97;;;6.40;99.90;;;;;;5108287;28;20436;-79
2021/11/03 00:06:08;;;;;;;21.83;20.30;;;6.40;99.90;;;;;;5110178;27;20432;-80
2021/11/03 00:08:35;;;;;;;21.90;20.70;;;6.50;99.90;;;;;;5110666;28;20842;-79
2021/11/03 00:11:04;;;;;;;22.67;21.07;;;6.50;99.90;;;;;;5110332;28;20449;-79
2021/11/03 00:13:33;;;;;;;22.90;21.53;;;6.50;99.90;;;;;;5110227;28;20446;-80
2021/11/03 00:15:59;;;;;;;21.50;20.20;;;6.50;99.90;;;;;;5110203;27;20486;-80
2021/11/03 00:18:26;;;;;;;22.63;21.13;;;6.50;99.90;;;;;;5110284;28;20441;-80
2021/11/03 00:20:56;;;;;;;23.67;21.47;;;6.60;99.90;;;;;;5110195;28;20841;-80
2021/11/03 00:23:22;;;;;;;24.30;22.63;;;6.60;99.90;;;;;;5110284;28;20451;-80
2021/11/03 00:25:49;;;;;;;24.20;22.60;;;6.60;99.90;;;;;;5110174;28;20911;-80
2021/11/03 00:28:18;;;;;;;23.40;21.90;;;6.70;99.90;;;;;;5110096;28;20445;-81
2021/11/03 00:30:49;;;;;;;23.20;21.60;;;6.70;99.90;;;;;;5109559;28;20480;-80
2021/11/03 00:33:16;;;;;;;23.13;21.73;;;6.70;99.90;;;;;;5110139;28;20440;-80
2021/11/03 00:35:43;;;;;;;23.07;21.20;;;6.80;99.90;;;;;;5109983;28;20480;-79
2021/11/03 00:38:10;;;;;;;22.10;20.73;;;6.80;99.90;;;;;;5110197;28;20440;-79
2021/11/03 00:40:37;;;;;;;23.60;21.80;;;6.80;99.90;;;;;;5109950;28;20436;-77
2021/11/03 00:43:04;;;;;;;24.23;22.73;;;6.80;99.90;;;;;;5109812;28;20441;-78
2021/11/03 00:45:31;;;;;;;24.13;22.50;;;6.90;99.90;;;;;;5110039;28;20853;-77
2021/11/03 00:47:59;;;;;;;22.70;21.07;;;6.90;99.90;;;;;;5111799;28;20456;-78
2021/11/03 00:50:26;;;;;;;23.77;22.17;;;6.80;99.90;;;;;;5114237;28;20797;-80
2021/11/03 00:52:53;;;;;;;24.10;22.50;;;6.80;99.90;;;;;;5114258;28;20453;-79
2021/11/03 00:55:20;;;;;;;24.43;22.93;;;6.80;99.90;;;;;;5114337;27;20890;-80
2021/11/03 00:57:47;;;;;;;24.13;22.60;;;6.90;99.90;;;;;;5113996;28;20498;-76
2021/11/03 01:00:18;;;;;;;26.67;24.33;;;6.90;99.90;;;;;;5114201;27;20445;-77
2021/11/03 01:02:45;;;;;;;26.23;24.30;;;7.00;99.90;;;;;;5114160;28;20445;-77
2021/11/03 01:05:16;;;;;;;24.73;23.13;;;7.00;99.90;;;;;;5114164;28;20441;-77
2021/11/03 01:07:43;;;;;;;22.43;20.87;;;7.00;99.90;;;;;;5114512;28;20777;-76
2021/11/03 01:10:11;;;;;;;21.43;19.93;;;7.00;99.90;;;;;;5114275;28;20502;-76
2021/11/03 01:12:39;;;;;;;21.23;19.97;;;7.00;99.90;;;;;;5114324;28;20450;-75
2021/11/03 01:15:09;;;;;;;20.10;18.90;;;7.00;99.90;;;;;;5114304;28;20487;-76
2021/11/03 01:17:36;;;;;;;19.80;18.57;;;7.00;99.90;;;;;;5114496;28;21025;-77
2021/11/03 01:20:04;;;;;;;19.57;18.27;;;7.00;99.90;;;;;;5114054;28;20800;-77
2021/11/03 01:22:32;;;;;;;18.87;17.80;;;6.90;99.90;;;;;;5114038;28;20942;-76
2021/11/03 01:24:59;;;;;;;21.30;20.10;;;6.90;99.90;;;;;;5113890;28;20984;-75
2021/11/03 01:27:26;;;;;;;20.87;19.57;;;6.90;99.90;;;;;;5114007;28;20456;-75
2021/11/03 01:29:52;;;;;;;20.70;19.50;;;6.90;99.90;;;;;;5113892;28;20498;-75
2021/11/03 01:32:19;;;;;;;21.40;20.20;;;6.90;99.90;;;;;;5114167;28;20560;-76
2021/11/03 01:34:46;;;;;;;21.77;20.47;;;6.90;99.90;;;;;;5113528;27;20484;-76
2021/11/03 01:37:12;;;;;;;23.60;22.30;;;6.90;99.90;;;;;;5114139;28;20470;-75
2021/11/03 01:39:40;;;;;;;22.27;21.10;;;6.90;99.90;;;;;;5113749;27;20456;-75
2021/11/03 01:42:07;;;;;;;23.63;22.33;;;6.90;99.90;;;;;;5113974;28;20847;-75
2021/11/03 01:44:35;;;;;;;25.03;23.73;;;6.90;99.90;;;;;;5113512;28;20521;-76
2021/11/03 01:47:34;;;;;;;27.33;25.53;;;7.00;99.90;;;;;;5113663;28;20975;-75
2021/11/03 01:50:01;;;;;;;26.83;25.43;;;7.00;99.90;;;;;;5113611;28;20930;-75
2021/11/03 01:52:28;;;;;;;28.17;26.67;;;7.00;99.90;;;;;;5113648;28;20440;-75
2021/11/03 01:54:57;;;;;;;28.20;26.70;;;7.00;99.90;;;;;;5113569;28;20484;-75
2021/11/03 01:57:28;;;;;;;28.40;26.87;;;7.00;99.90;;;;;;5113383;28;20459;-75
2021/11/03 01:59:58;;;;;;;29.90;28.37;;;7.00;99.90;;;;;;5113211;28;20474;-75
2021/11/03 02:02:26;;;;;;;32.60;30.63;;;7.00;99.90;;;;;;5113339;28;20513;-75
2021/11/03 02:04:53;;;;;;;35.50;33.30;;;7.00;99.90;;;;;;5113272;28;20451;-76
2021/11/03 02:07:23;;;;;;;34.83;32.80;;;7.00;99.90;;;;;;5113313;28;20449;-76
2021/11/03 02:09:51;;;;;;;34.53;32.47;;;7.00;99.90;;;;;;5113560;27;20445;-75
2021/11/03 02:12:20;;;;;;;36.00;33.70;;;7.10;99.90;;;;;;5113334;28;20457;-76
2021/11/03 02:14:48;;;;;;;40.40;37.80;;;7.10;99.90;;;;;;5113021;28;20815;-77
2021/11/03 02:17:15;;;;;;;41.03;38.53;;;7.00;99.90;;;;;;5113137;28;20457;-78
2021/11/03 02:19:44;;;;;;;41.83;39.27;;;7.00;99.90;;;;;;5113080;28;20446;-77
2021/11/03 02:22:20;;;;;;;43.53;40.73;;;7.10;99.90;;;;;;5113153;28;20459;-78
2021/11/03 02:24:53;;;;;;;43.70;40.93;;;7.20;99.90;;;;;;5113329;28;20879;-79
2021/11/03 02:27:22;;;;;;;39.03;36.53;;;7.20;99.90;;;;;;5114048;28;20460;-78
2021/11/03 02:29:49;;;;;;;38.73;36.30;;;7.10;99.90;;;;;;5113265;28;20542;-77
2021/11/03 02:32:18;;;;;;;40.97;38.50;;;7.20;99.90;;;;;;5112771;28;20996;-76
2021/11/03 02:34:46;;;;;;;38.10;36.00;;;7.10;99.90;;;;;;5112890;28;20463;-76
2021/11/03 02:37:46;;;;;;;37.63;35.43;;;7.10;99.90;;;;;;5112418;28;20460;-78
2021/11/03 02:40:43;;;;;;;37.67;35.53;;;7.10;99.90;;;;;;5111452;28;20455;-75
2021/11/03 02:43:14;;;;;;;37.87;35.77;;;7.10;99.90;;;;;;5109809;28;20529;-76
2021/11/03 02:45:45;;;;;;;37.20;35.10;;;7.20;99.90;;;;;;5112235;28;20450;-75
2021/11/03 02:48:14;;;;;;;34.70;32.70;;;7.20;99.90;;;;;;5112386;28;20540;-76
2021/11/03 02:50:55;;;;;;;34.93;32.83;;;7.20;99.90;;;;;;5112189;27;20452;-76
2021/11/03 02:53:22;;;;;;;35.60;33.60;;;7.20;99.90;;;;;;5112875;28;20441;-76
2021/11/03 02:55:49;;;;;;;35.17;33.17;;;7.10;99.90;;;;;;5112050;28;20481;-78
2021/11/03 02:58:16;;;;;;;37.00;35.00;;;7.10;99.90;;;;;;5111810;28;20438;-76
2021/11/03 03:00:44;;;;;;;39.20;36.70;;;7.10;99.90;;;;;;5111819;28;20445;-75
2021/11/03 03:03:10;;;;;;;40.23;37.83;;;7.20;99.90;;;;;;5111951;28;20437;-76
2021/11/03 03:05:38;;;;;;;39.47;36.97;;;7.20;99.90;;;;;;5112059;28;20457;-75
2021/11/03 03:08:06;;;;;;;39.60;37.00;;;7.10;99.90;;;;;;5111957;28;20453;-76
2021/11/03 03:10:33;;;;;;;40.57;38.07;;;7.10;99.90;;;;;;5110304;28;20453;-79
2021/11/03 03:12:59;;;;;;;40.73;38.23;;;7.10;99.90;;;;;;5111780;28;20452;-77
2021/11/03 03:15:27;;;;;;;41.00;38.40;;;7.10;99.90;;;;;;5111854;28;20485;-78
2021/11/03 03:17:54;;;;;;;38.80;36.60;;;7.10;99.90;;;;;;5111568;28;20478;-77
2021/11/03 03:20:21;;;;;;;39.90;37.47;;;7.10;99.90;;;;;;5111733;28;20506;-77
2021/11/03 03:22:47;;;;;;;39.43;37.03;;;7.00;99.90;;;;;;5111614;28;20445;-77
2021/11/03 03:25:14;;;;;;;39.67;37.27;;;7.10;99.90;;;;;;5111398;27;20452;-75
2021/11/03 03:27:41;;;;;;;39.20;36.80;;;7.10;99.90;;;;;;5111250;28;20449;-75
2021/11/03 03:30:08;;;;;;;39.90;37.60;;;7.10;99.90;;;;;;5111323;28;20488;-76
2021/11/03 03:32:36;;;;;;;39.17;36.67;;;7.10;99.90;;;;;;5111346;28;20949;-75
2021/11/03 03:35:03;;;;;;;39.93;37.60;;;7.10;99.90;;;;;;5111132;28;20551;-75
2021/11/03 03:37:31;;;;;;;39.97;37.50;;;7.10;99.90;;;;;;5111266;28;20452;-75
2021/11/03 03:39:57;;;;;;;38.93;36.60;;;7.20;99.90;;;;;;5110805;28;20453;-75
2021/11/03 03:42:24;;;;;;;37.17;34.87;;;7.20;99.90;;;;;;5111102;28;20601;-75
2021/11/03 03:44:51;;;;;;;34.43;32.30;;;7.20;99.90;;;;;;5111095;27;20813;-75
2021/11/03 03:47:18;;;;;;;35.77;33.77;;;7.20;99.90;;;;;;5111166;28;20449;-75
2021/11/03 03:49:46;;;;;;;36.70;34.03;;;7.10;99.90;;;;;;5110872;28;20553;-75
2021/11/03 03:52:14;;;;;;;34.80;32.77;;;7.10;99.90;;;;;;5110820;28;20469;-75
2021/11/03 03:54:40;;;;;;;34.63;32.73;;;7.10;99.90;;;;;;5110874;28;20548;-75
2021/11/03 03:57:07;;;;;;;36.27;34.07;;;7.20;99.90;;;;;;5110644;28;20485;-76
2021/11/03 03:59:34;;;;;;;36.07;33.87;;;7.20;99.90;;;;;;5111047;28;20449;-75
2021/11/03 04:02:02;;;;;;;35.43;33.33;;;7.20;99.90;;;;;;5110594;28;20453;-75
2021/11/03 04:04:28;;;;;;;34.67;32.53;;;7.20;99.90;;;;;;5110721;28;20935;-76
2021/11/03 04:06:56;;;;;;;36.30;34.10;;;7.20;99.90;;;;;;5110608;28;20452;-75
2021/11/03 04:09:23;;;;;;;36.10;33.80;;;7.20;99.90;;;;;;5110715;28;20876;-76
2021/11/03 04:11:50;;;;;;;35.00;32.90;;;7.20;99.90;;;;;;5110736;28;20943;-75
2021/11/03 04:14:16;;;;;;;35.73;33.73;;;7.30;99.90;;;;;;5110192;28;20498;-74
2021/11/03 04:16:43;;;;;;;36.40;34.30;;;7.20;99.90;;;;;;5110586;28;21005;-75
2021/11/03 04:19:10;;;;;;;37.80;35.50;;;7.40;99.90;;;;;;5110678;28;20840;-74
2021/11/03 04:21:37;;;;;;;38.33;36.10;;;7.40;99.90;;;;;;5110610;28;20449;-76
2021/11/03 04:24:06;;;;;;;39.13;36.83;;;7.30;99.90;;;;;;5111090;28;20497;-75
2021/11/03 04:26:36;;;;;;;38.87;36.00;;;7.30;99.90;;;;;;5110511;28;20518;-76
2021/11/03 04:29:04;;;;;;;37.33;35.03;;;7.40;99.90;;;;;;5110311;28;20477;-75
2021/11/03 04:31:32;;;;;;;38.47;36.27;;;7.40;99.90;;;;;;5110693;28;20913;-76
2021/11/03 04:33:59;;;;;;;38.43;36.20;;;7.30;99.90;;;;;;5110207;28;20464;-75
2021/11/03 04:36:25;;;;;;;38.47;36.07;;;7.30;99.90;;;;;;5110196;28;20489;-75
2021/11/03 04:38:55;;;;;;;38.40;35.80;;;7.20;99.90;;;;;;5110532;28;20502;-74
2021/11/03 04:41:23;;;;;;;38.90;36.63;;;7.20;99.90;;;;;;5110654;28;20444;-76
2021/11/03 04:43:50;;;;;;;38.07;35.70;;;7.20;99.90;;;;;;5110369;28;20452;-74
2021/11/03 04:46:18;;;;;;;36.87;34.50;;;7.20;99.90;;;;;;5110339;28;20855;-75
2021/11/03 04:48:49;;;;;;;37.23;34.97;;;7.20;99.90;;;;;;5110207;28;20445;-75
2021/11/03 04:51:16;;;;;;;37.00;34.70;;;7.20;99.90;;;;;;5110101;28;20455;-75
2021/11/03 04:53:43;;;;;;;38.23;35.87;;;7.20;99.90;;;;;;5109993;28;20503;-75
2021/11/03 04:56:13;;;;;;;38.77;36.00;;;7.30;99.90;;;;;;5109739;28;20477;-75
2021/11/03 04:58:42;;;;;;;40.80;37.87;;;7.30;99.90;;;;;;5109668;28;20445;-75
2021/11/03 05:01:09;;;;;;;40.67;37.87;;;7.20;99.90;;;;;;5110096;28;20444;-75
2021/11/03 05:03:35;;;;;;;39.73;37.00;;;7.20;99.90;;;;;;5110398;28;20451;-75
2021/11/03 05:06:04;;;;;;;40.17;37.50;;;7.20;99.90;;;;;;5109907;28;20453;-75
2021/11/03 05:08:31;;;;;;;39.40;37.03;;;7.20;99.90;;;;;;5110050;28;20449;-74
2021/11/03 05:10:58;;;;;;;41.23;38.63;;;7.20;99.90;;;;;;5110167;28;20577;-75
2021/11/03 05:13:24;;;;;;;39.80;37.30;;;7.30;99.90;;;;;;5109594;28;20456;-75
2021/11/03 05:15:53;;;;;;;37.87;35.30;;;7.20;99.90;;;;;;5109910;28;20453;-74
2021/11/03 05:18:19;;;;;;;39.07;36.40;;;7.20;99.90;;;;;;5110044;28;20909;-74
2021/11/03 05:20:46;;;;;;;37.50;35.20;;;7.20;99.90;;;;;;5109752;28;20448;-74
2021/11/03 05:23:13;;;;;;;35.77;33.37;;;7.20;99.90;;;;;;5109830;28;20779;-74
2021/11/03 05:25:39;;;;;;;38.10;35.70;;;7.20;99.90;;;;;;5109593;28;21012;-74
2021/11/03 05:28:06;;;;;;;39.57;36.97;;;7.30;99.90;;;;;;5109790;28;20847;-73
2021/11/03 05:30:33;;;;;;;38.13;35.67;;;7.30;99.90;;;;;;5109894;28;20488;-73
2021/11/03 05:33:01;;;;;;;36.13;33.67;;;7.30;99.90;;;;;;5110599;28;20460;-74
2021/11/03 05:35:28;;;;;;;37.53;35.03;;;7.30;99.90;;;;;;5113927;27;20805;-74
2021/11/03 05:37:55;;;;;;;36.97;34.50;;;7.30;99.90;;;;;;5113375;28;20542;-73
2021/11/03 05:40:26;;;;;;;37.57;35.20;;;7.30;99.90;;;;;;5113546;28;20472;-74
2021/11/03 05:42:53;;;;;;;34.70;32.70;;;7.30;99.90;;;;;;5113143;28;20449;-74
2021/11/03 05:45:20;;;;;;;35.10;32.90;;;7.30;99.90;;;;;;5113789;28;20804;-76
2021/11/03 05:47:48;;;;;;;35.40;33.27;;;7.20;99.90;;;;;;5113572;28;20449;-73
2021/11/03 05:50:19;;;;;;;34.30;32.10;;;7.30;99.90;;;;;;5113575;28;20478;-73
2021/11/03 05:52:46;;;;;;;31.33;29.27;;;7.30;99.90;;;;;;5113402;28;20683;-75
2021/11/03 05:55:13;;;;;;;31.93;30.03;;;7.30;99.90;;;;;;5113391;28;20453;-75
2021/11/03 05:57:42;;;;;;;32.47;30.50;;;7.30;99.90;;;;;;5113238;28;20873;-75
2021/11/03 06:00:14;;;;;;;32.80;30.50;;;7.30;99.90;;;;;;5113257;28;20453;-75
2021/11/03 06:02:40;;;;;;;30.47;28.57;;;7.40;99.90;;;;;;5113284;28;20449;-75
2021/11/03 06:05:08;;;;;;;33.40;31.30;;;7.40;99.90;;;;;;5113160;28;20853;-75
2021/11/03 06:07:36;;;;;;;30.53;28.70;;;7.40;99.90;;;;;;5113056;28;20502;-74
2021/11/03 06:10:05;;;;;;;30.57;28.87;;;7.50;99.90;;;;;;5113297;28;20489;-74
2021/11/03 06:12:32;;;;;;;29.33;27.63;;;7.50;99.90;;;;;;5112767;28;20445;-74
2021/11/03 06:14:59;;;;;;;30.40;28.10;;;7.50;99.90;;;;;;5112499;28;20514;-75
2021/11/03 06:17:25;;;;;;;29.73;28.03;;;7.60;99.90;;;;;;5112641;28;20481;-75
2021/11/03 06:19:52;;;;;;;29.33;27.40;;;7.60;99.90;;;;;;5112898;28;20457;-76
2021/11/03 06:22:19;;;;;;;29.13;27.47;;;7.60;99.90;;;;;;5112934;28;20935;-75
2021/11/03 06:24:49;;;;;;;31.10;28.80;;;7.70;99.90;;;;;;5112716;28;20855;-74
2021/11/03 06:27:16;;;;;;;30.90;28.90;;;7.60;99.90;;;;;;5112611;27;20536;-74
2021/11/03 06:29:42;;;;;;;31.37;28.80;;;7.60;99.90;;;;;;5112350;28;20480;-76
2021/11/03 06:32:09;;;;;;;30.63;28.90;;;7.70;99.90;;;;;;5112476;28;20460;-76
2021/11/03 06:34:37;;;;;;;30.80;28.53;;;7.70;99.90;;;;;;5112877;28;20445;-75
2021/11/03 06:37:04;;;;;;;31.53;29.33;;;7.80;99.90;;;;;;5112743;28;20488;-75
2021/11/03 06:39:31;;;;;;;30.37;28.37;;;7.90;99.90;;;;;;5112309;28;20446;-74
2021/11/03 06:42:00;;;;;;;27.50;25.60;;;7.90;99.90;;;;;;5112201;28;20452;-75
2021/11/03 06:44:27;;;;;;;28.30;26.50;;;7.90;99.90;;;;;;5111902;28;20986;-74
2021/11/03 06:46:53;;;;;;;27.27;25.57;;;8.00;99.90;;;;;;5112331;27;20441;-75
2021/11/03 06:49:21;;;;;;;27.90;25.93;;;8.00;99.90;;;;;;5112959;28;20442;-75
2021/11/03 06:51:47;;;;;;;29.10;27.23;;;8.00;99.90;;;;;;5112623;28;20919;-75
2021/11/03 06:54:14;;;;;;;27.03;25.23;;;8.10;99.90;;;;;;5112917;28;20453;-76
2021/11/03 06:56:41;;;;;;;28.23;26.13;;;8.20;99.90;;;;;;5112369;28;20481;-74
2021/11/03 06:59:09;;;;;;;28.70;26.57;;;8.30;99.90;;;;;;5111897;28;20457;-73
2021/11/03 07:01:36;;;;;;;27.53;25.90;;;8.30;99.90;;;;;;5112338;28;20494;-75
2021/11/03 07:04:04;;;;;;;26.17;24.57;;;8.40;99.90;;;;;;5111965;28;20616;-75
2021/11/03 07:06:31;;;;;;;22.53;21.23;;;8.40;99.90;;;;;;5111713;28;20536;-78
2021/11/03 07:08:58;;;;;;;22.63;21.33;;;8.50;99.90;;;;;;5112012;28;20448;-80
2021/11/03 07:11:25;;;;;;;22.00;20.50;;;8.50;99.90;;;;;;5111641;28;20966;-74
2021/11/03 07:13:52;;;;;;;21.53;19.70;;;8.60;99.90;;;;;;5111683;28;20445;-74
2021/11/03 07:16:20;;;;;;;20.17;19.03;;;8.70;99.90;;;;;;5111562;28;20873;-75
2021/11/03 07:18:47;;;;;;;21.40;20.20;;;8.80;99.90;;;;;;5111556;28;20450;-75
2021/11/03 07:21:14;;;;;;;20.27;19.00;;;9.00;99.90;;;;;;5111230;28;20502;-74
2021/11/03 07:23:40;;;;;;;18.93;17.50;;;9.00;99.90;;;;;;5111312;28;20502;-75
2021/11/03 07:26:07;;;;;;;17.00;16.10;;;9.10;99.90;;;;;;5111913;28;20804;-74
2021/11/03 07:28:36;;;;;;;17.43;16.27;;;9.10;99.90;;;;;;5112193;28;20445;-75
2021/11/03 07:31:03;;;;;;;20.33;16.47;;;9.20;99.90;;;;;;5112714;28;20497;-75
2021/11/03 07:33:31;;;;;;;20.67;19.20;;;9.20;99.90;;;;;;5111567;28;20437;-75
2021/11/03 07:35:58;;;;;;;19.17;18.00;;;9.30;99.90;;;;;;5110978;28;20805;-74
2021/11/03 07:38:25;;;;;;;21.03;19.40;;;9.30;99.90;;;;;;5111040;28;20485;-73
2021/11/03 07:40:56;;;;;;;16.70;15.60;;;9.30;99.90;;;;;;5111126;28;20453;-74
2021/11/03 07:43:26;;;;;;;15.63;14.73;;;9.50;99.90;;;;;;5111082;28;20449;-74
2021/11/03 07:45:56;;;;;;;17.60;16.40;;;9.50;99.90;;;;;;5109277;28;20447;-74
2021/11/03 07:48:25;;;;;;;16.00;15.10;;;9.60;99.90;;;;;;5111290;28;20442;-75
2021/11/03 07:50:57;;;;;;;15.67;14.87;;;9.60;99.90;;;;;;5111089;28;20493;-75
2021/11/03 07:53:24;;;;;;;15.07;14.27;;;9.60;99.90;;;;;;5111128;28;20460;-74
2021/11/03 07:55:54;;;;;;;16.63;15.50;;;9.60;99.90;;;;;;5110582;28;20445;-74
2021/11/03 07:58:23;;;;;;;17.43;16.40;;;9.60;99.90;;;;;;5110980;28;20484;-75
2021/11/03 08:00:51;;;;;;;15.43;14.23;;;9.60;99.90;;;;;;5110963;28;20513;-74
2021/11/03 08:03:18;;;;;;;15.57;14.77;;;9.70;99.90;;;;;;5111380;28;20452;-75
2021/11/03 08:05:45;;;;;;;15.63;14.80;;;9.70;99.90;;;;;;5110513;28;20452;-74
2021/11/03 08:08:18;;;;;;;14.40;13.70;;;9.70;99.90;;;;;;5110727;28;20445;-75
2021/11/03 08:10:46;;;;;;;15.97;14.87;;;9.80;99.90;;;;;;5110548;28;20936;-74
2021/11/03 08:13:16;;;;;;;14.50;13.70;;;9.90;99.90;;;;;;5110734;28;20800;-76
2021/11/03 08:15:44;;;;;;;15.07;14.23;;;10.00;99.90;;;;;;5110601;28;20455;-76
2021/11/03 08:18:12;;;;;;;15.13;14.10;;;10.10;99.90;;;;;;5110460;28;20485;-74
2021/11/03 08:20:41;;;;;;;14.67;13.77;;;10.30;99.90;;;;;;5110373;28;20441;-75
2021/11/03 08:23:09;;;;;;;14.87;13.93;;;10.40;99.90;;;;;;5110656;28;20445;-77
2021/11/03 08:25:37;;;;;;;15.30;14.40;;;10.60;99.90;;;;;;5110782;28;20522;-75
2021/11/03 08:28:05;;;;;;;15.60;14.50;;;10.80;99.90;;;;;;5110408;28;20445;-75
2021/11/03 08:30:31;;;;;;;15.13;13.90;;;10.90;99.90;;;;;;5110139;28;20484;-75
2021/11/03 08:33:03;;;;;;;15.40;13.87;;;11.00;99.90;;;;;;5110045;28;20796;-74
2021/11/03 08:35:31;;;;;;;15.77;14.60;;;11.10;99.90;;;;;;5109938;28;20448;-74
2021/11/03 08:38:02;;;;;;;15.47;14.30;;;11.20;99.90;;;;;;5109780;28;20592;-74
2021/11/03 08:40:29;;;;;;;16.20;14.40;;;11.40;99.90;;;;;;5110277;28;20460;-74
2021/11/03 08:42:58;;;;;;;18.13;13.70;;;11.60;99.90;;;;;;5109823;28;20457;-75
2021/11/03 08:45:25;;;;;;;13.67;12.67;;;11.40;99.90;;;;;;5110061;28;20488;-75
2021/11/03 08:47:52;;;;;;;14.07;13.13;;;11.30;99.90;;;;;;5110288;28;20445;-75
2021/11/03 08:50:21;;;;;;;14.27;13.40;;;11.40;99.90;;;;;;5109951;28;20470;-74
2021/11/03 08:52:48;;;;;;;18.50;16.60;;;11.60;99.90;;;;;;5109911;28;20954;-72
2021/11/03 08:55:15;;;;;;;16.33;15.33;;;11.70;99.90;;;;;;5110066;28;20679;-72
2021/11/03 08:57:43;;;;;;;15.53;14.30;;;12.00;99.90;;;;;;5109549;28;20687;-72
2021/11/03 09:00:15;;;;;;;15.40;14.50;;;12.20;99.90;;;;;;5109994;28;20449;-72
2021/11/03 09:02:42;;;;;;;15.37;14.60;;;12.40;99.90;;;;;;5109909;28;20449;-72
2021/11/03 09:05:09;;;;;;;15.10;14.23;;;12.40;99.90;;;;;;5109803;28;20560;-72
2021/11/03 09:07:36;;;;;;;16.20;15.10;;;12.50;99.90;;;;;;5111611;28;20854;-72
2021/11/03 09:10:06;;;;;;;13.67;12.97;;;12.50;99.90;;;;;;5105788;28;20884;-72
2021/11/03 09:12:33;;;;;;;13.13;12.40;;;12.60;99.90;;;;;;5093393;28;20450;-73
2021/11/03 09:15:00;;;;;;;13.77;12.93;;;12.60;99.90;;;;;;5093338;28;20815;-72
2021/11/03 09:17:28;;;;;;;14.73;13.47;;;12.70;99.90;;;;;;5097227;27;21045;-72
2021/11/03 09:19:56;;;;;;;13.10;12.27;;;12.80;99.90;;;;;;5106566;28;20540;-73
2021/11/03 09:22:22;;;;;;;13.40;12.60;;;13.10;99.90;;;;;;5097173;28;20868;-72
2021/11/03 09:24:49;;;;;;;13.30;12.60;;;13.30;99.90;;;;;;5094319;28;20442;-72
2021/11/03 09:27:17;;;;;;;13.07;12.40;;;13.50;99.90;;;;;;5113532;28;20494;-73
2021/11/03 09:29:45;;;;;;;14.87;14.07;;;13.70;99.90;;;;;;5113185;27;20827;-72
2021/11/03 09:32:16;;;;;;;14.67;13.80;;;14.00;99.90;;;;;;5113367;28;20445;-74
2021/11/03 09:34:45;;;;;;;13.87;12.97;;;14.30;99.90;;;;;;5099848;28;20498;-73
2021/11/03 09:37:19;;;;;;;13.77;12.87;;;14.60;99.90;;;;;;5102210;28;20467;-73
2021/11/03 09:43:42;;;;;;;13.03;12.10;;;14.70;99.90;;;;;;5096284;28;20423;-76
2021/11/03 09:46:18;;;;;;;13.80;12.70;;;14.40;99.90;;;;;;5111536;28;20434;-72
2021/11/03 09:48:46;;;;;;;13.40;12.57;;;14.40;99.90;;;;;;5113720;28;20946;-72
2021/11/03 09:51:19;;;;;;;13.43;12.80;;;14.30;99.90;;;;;;5113541;28;20451;-71
2021/11/03 09:53:48;;;;;;;13.73;12.80;;;14.10;99.90;;;;;;5094696;28;20454;-72
2021/11/03 09:56:17;;;;;;;13.00;12.20;;;14.00;99.90;;;;;;5092912;28;20458;-72
2021/11/03 09:59:17;;;;;;;12.80;12.00;;;14.00;99.90;;;;;;5092689;28;20808;-72
2021/11/03 10:01:47;;;;;;;12.03;11.43;;;14.10;99.90;;;;;;5088648;28;20458;-71
2021/11/03 10:04:37;;;;;;;13.50;12.80;;;14.10;99.90;;;;;;5092634;28;20447;-71
2021/11/03 10:07:18;;;;;;;11.83;11.10;;;14.00;99.90;;;;;;5080469;28;20438;-71
2021/11/03 10:09:45;;;;;;;14.30;12.53;;;14.00;99.90;;;;;;5099360;28;20437;-72
2021/11/03 10:12:13;;;;;;;13.57;12.50;;;13.80;99.90;;;;;;5092596;28;20430;-71
2021/11/03 10:14:40;;;;;;;15.13;14.03;;;13.60;99.90;;;;;;5092324;28;20446;-73
2021/11/03 10:17:19;;;;;;;14.43;13.40;;;13.50;99.90;;;;;;5091582;28;20450;-72
2021/11/03 10:19:46;;;;;;;12.73;12.03;;;13.60;99.90;;;;;;5091534;28;20446;-71
2021/11/03 10:22:35;;;;;;;13.77;12.33;;;13.50;99.90;;;;;;5092286;28;20453;-71
2021/11/03 10:25:17;;;;;;;13.37;12.50;;;13.70;99.90;;;;;;5092515;28;20453;-76
2021/11/03 10:27:46;;;;;;;13.43;12.53;;;13.90;99.90;;;;;;5092293;28;20492;-76
2021/11/03 10:30:27;;;;;;;13.97;12.87;;;13.90;99.90;;;;;;5091844;28;20482;-79
2021/11/03 10:32:55;;;;;;;12.47;11.67;;;13.90;99.90;;;;;;5092167;28;20445;-78
2021/11/03 10:35:28;;;;;;;12.73;11.77;;;13.80;99.90;;;;;;5092258;28;20500;-78
2021/11/03 10:38:03;;;;;;;12.60;11.70;;;14.00;99.90;;;;;;5093291;28;20559;-78
2021/11/03 10:40:33;;;;;;;12.80;12.20;;;13.80;99.90;;;;;;5111300;28;20471;-79
2021/11/03 10:43:02;;;;;;;11.70;10.90;;;13.80;99.90;;;;;;5110919;28;20511;-78
2021/11/03 10:45:32;;;;;;;12.73;11.83;;;13.90;99.90;;;;;;5111847;28;20438;-78
2021/11/03 10:48:18;;;;;;;13.80;12.70;;;13.90;99.90;;;;;;5109543;28;20438;-78
2021/11/03 10:51:03;;;;;;;12.80;11.90;;;13.80;99.90;;;;;;5111779;28;20518;-78
2021/11/03 10:53:45;;;;;;;12.27;11.57;;;14.00;99.90;;;;;;5109939;28;20441;-78
2021/11/03 10:56:16;;;;;;;12.40;11.70;;;14.10;99.90;;;;;;5109259;28;20441;-79
2021/11/03 10:58:56;;;;;;;12.43;11.73;;;14.20;99.90;;;;;;5108037;28;20702;-78
2021/11/03 11:01:30;;;;;;;12.03;11.50;;;14.30;99.90;;;;;;5108221;28;20796;-78
2021/11/03 11:04:02;;;;;;;16.33;13.40;;;14.50;99.90;;;;;;5110862;28;20446;-78
2021/11/03 11:06:31;;;;;;;14.30;13.30;;;14.50;99.90;;;;;;5109302;28;20752;-78
2021/11/03 11:09:03;;;;;;;13.27;12.57;;;14.50;99.90;;;;;;5112078;28;20437;-80
2021/11/03 11:11:37;;;;;;;13.00;12.30;;;14.30;99.90;;;;;;5110784;28;20453;-79
2021/11/03 11:14:11;;;;;;;13.57;12.40;;;14.10;99.90;;;;;;5110759;28;20452;-78
2021/11/03 11:16:45;;;;;;;13.53;12.73;;;14.10;99.90;;;;;;5108727;28;20552;-77
2021/11/03 11:19:28;;;;;;;12.20;11.50;;;14.00;99.90;;;;;;5107935;28;20492;-78
2021/11/03 11:21:58;;;;;;;11.93;11.43;;;14.00;99.90;;;;;;5108298;28;20915;-77
2021/11/03 11:24:32;;;;;;;12.30;11.70;;;14.40;99.90;;;;;;5110619;28;21129;-77
2021/11/03 11:27:18;;;;;;;11.30;10.70;;;14.50;99.90;;;;;;5108679;28;20445;-77
2021/11/03 11:29:53;;;;;;;11.70;11.07;;;14.40;99.90;;;;;;5109062;28;20488;-77
2021/11/03 11:32:35;;;;;;;11.10;10.50;;;14.40;99.90;;;;;;5105558;28;20798;-78
2021/11/03 11:35:14;;;;;;;11.83;11.23;;;14.40;99.90;;;;;;5107488;28;20449;-78
2021/11/03 11:37:50;;;;;;;10.90;10.40;;;14.50;99.90;;;;;;5109905;28;20445;-78
2021/11/03 11:40:27;;;;;;;10.50;10.10;;;14.50;99.90;;;;;;5110044;28;20446;-77
2021/11/03 11:43:00;;;;;;;10.80;10.30;;;14.40;99.90;;;;;;5109904;27;20872;-78
2021/11/03 11:45:29;;;;;;;12.07;11.57;;;14.30;99.90;;;;;;5107920;28;20456;-78
2021/11/03 11:48:00;;;;;;;12.90;12.30;;;14.20;99.90;;;;;;5110408;28;20452;-78
2021/11/03 11:50:33;;;;;;;12.20;11.70;;;14.10;99.90;;;;;;5111506;28;20460;-79
2021/11/03 11:53:00;;;;;;;11.17;10.77;;;14.00;99.90;;;;;;5111116;28;20455;-79
2021/11/03 11:55:31;;;;;;;12.77;12.20;;;14.00;99.90;;;;;;5111103;28;20454;-78
2021/11/03 11:58:28;;;;;;;12.60;11.97;;;13.80;99.90;;;;;;5110835;28;20446;-78
2021/11/03 12:01:23;;;;;;;12.23;11.73;;;14.00;99.90;;;;;;5110843;28;20548;-78
2021/11/03 12:04:39;;;;;;;12.67;12.17;;;13.90;99.90;;;;;;5111149;28;20449;-79
2021/11/03 12:07:29;;;;;;;13.27;12.50;;;14.00;99.90;;;;;;5109477;28;20457;-79
2021/11/03 12:10:24;;;;;;;11.90;11.50;;;13.90;99.90;;;;;;5108164;28;20449;-72
2021/11/03 12:13:29;;;;;;;13.20;12.50;;;14.00;99.90;;;;;;5103812;28;20541;-73
2021/11/03 12:16:08;;;;;;;14.00;13.20;;;14.10;99.90;;;;;;5042088;28;20468;-77
2021/11/03 12:18:48;;;;;;;13.07;12.37;;;13.70;99.90;;;;;;5093603;28;20524;-79
2021/11/03 12:21:32;;;;;;;13.47;12.57;;;13.60;99.90;;;;;;5090854;28;20485;-79
2021/11/03 12:24:32;;;;;;;14.50;13.40;;;13.60;99.90;;;;;;5090280;28;20524;-78
2021/11/03 12:27:30;;;;;;;13.00;12.30;;;13.50;99.90;;;;;;5090078;28;20454;-78
2021/11/03 12:30:19;;;;;;;12.53;11.83;;;13.60;99.90;;;;;;5090107;28;20485;-78
2021/11/03 12:32:57;;;;;;;12.50;11.90;;;13.90;99.90;;;;;;5090331;28;20873;-79
2021/11/03 12:36:13;;;;;;;13.00;12.30;;;14.30;99.90;;;;;;5090731;28;20454;-80
2021/11/03 12:38:50;;;;;;;11.77;11.17;;;14.50;99.90;;;;;;5047268;28;20838;-76
2021/11/03 12:41:23;;;;;;;11.63;11.03;;;14.60;99.90;;;;;;5082815;28;20442;-77
2021/11/03 12:43:56;;;;;;;13.00;12.30;;;14.60;99.90;;;;;;5090208;28;20809;-76
2021/11/03 12:46:25;;;;;;;13.07;12.20;;;14.30;99.90;;;;;;5089850;28;20477;-77
2021/11/03 12:48:56;;;;;;;12.63;12.03;;;14.20;99.90;;;;;;5089799;28;20450;-77
2021/11/03 12:51:25;;;;;;;12.23;11.67;;;14.20;99.90;;;;;;5089751;28;20454;-77
2021/11/03 12:53:54;;;;;;;395.77;60.47;;;14.20;99.90;;;;;;5089886;28;20454;-84